Time;durP1;ratioP1;P1;durP2;ratioP2;P2;SDS_P1;SDS_P2;PMS_P1;PMS_P2;Temp;Humidity;BMP_temperature;BMP_pressure;BME280_temperature;BME280_humidity;BME280_pressure;Samples;Min_cycle;Max_cycle;Signal;HPM_P1;HPM_P2
2022/01/11 00:01:40;;;;;;;33.83;16.07;;;1.80;99.90;;;;;;5036102;28;20437;-77
2022/01/11 00:04:06;;;;;;;33.50;17.03;;;1.90;99.90;;;;;;5036166;28;20097;-77
2022/01/11 00:06:41;;;;;;;29.03;14.80;;;1.90;99.90;;;;;;5035887;28;20050;-77
2022/01/11 00:09:20;;;;;;;26.15;15.85;;;1.80;99.90;;;;;;5035667;28;20454;-77
2022/01/11 00:11:47;;;;;;;30.13;15.70;;;1.80;99.90;;;;;;5035769;28;20026;-77
2022/01/11 00:14:13;;;;;;;25.20;14.73;;;1.80;99.90;;;;;;5035853;28;20489;-77
2022/01/11 00:16:38;;;;;;;24.13;15.20;;;1.90;99.90;;;;;;5034387;28;20029;-77
2022/01/11 00:19:06;;;;;;;28.27;15.63;;;1.80;99.90;;;;;;5035599;28;20061;-77
2022/01/11 00:21:33;;;;;;;23.87;14.20;;;1.70;99.90;;;;;;5035630;28;20343;-77
2022/01/11 00:26:43;;;;;;;25.37;15.63;;;1.60;99.90;;;;;;5035648;28;20391;-77
2022/01/11 00:29:09;;;;;;;36.63;17.77;;;1.70;99.90;;;;;;5035577;28;20032;-77
2022/01/11 00:31:34;;;;;;;25.33;15.53;;;1.70;99.90;;;;;;5035486;28;20112;-77
2022/01/11 00:34:03;;;;;;;50.47;22.17;;;1.80;99.90;;;;;;5035449;28;20025;-77
2022/01/11 00:36:40;;;;;;;27.30;16.93;;;1.80;99.90;;;;;;5035343;28;20048;-77
2022/01/11 00:39:06;;;;;;;26.00;14.40;;;1.80;99.90;;;;;;5035293;28;20430;-77
2022/01/11 00:41:32;;;;;;;28.57;15.80;;;1.90;99.90;;;;;;5035291;28;20060;-77
2022/01/11 00:43:57;;;;;;;25.17;15.50;;;1.90;99.90;;;;;;5034970;28;20053;-76
2022/01/11 00:46:23;;;;;;;39.73;19.33;;;1.90;99.90;;;;;;5034059;28;20484;-77
2022/01/11 00:48:48;;;;;;;25.43;16.17;;;2.10;99.90;;;;;;5033438;28;20034;-77
2022/01/11 00:51:14;;;;;;;33.80;18.23;;;2.00;99.90;;;;;;5035295;28;20131;-77
2022/01/11 00:53:41;;;;;;;48.93;22.07;;;2.10;99.90;;;;;;5034798;28;20112;-77
2022/01/11 00:56:07;;;;;;;31.80;16.53;;;2.00;99.90;;;;;;5035031;28;20025;-77
2022/01/11 00:58:32;;;;;;;43.70;20.93;;;2.00;99.90;;;;;;5034717;28;20026;-77
2022/01/11 01:00:59;;;;;;;32.63;16.63;;;2.00;99.90;;;;;;5034092;28;20041;-77
2022/01/11 01:03:25;;;;;;;29.17;15.70;;;2.00;99.90;;;;;;5034624;28;20043;-77
2022/01/11 01:05:52;;;;;;;30.77;16.57;;;2.10;99.90;;;;;;5033209;28;20029;-77
2022/01/11 01:08:17;;;;;;;25.87;15.53;;;2.10;99.90;;;;;;5033278;28;20450;-77
2022/01/11 01:10:47;;;;;;;32.90;16.87;;;2.10;99.90;;;;;;5034483;28;20052;-77
2022/01/11 01:13:17;;;;;;;24.17;14.47;;;2.10;99.90;;;;;;5033154;28;20029;-78
2022/01/11 01:15:47;;;;;;;32.40;16.50;;;2.10;99.90;;;;;;5034666;28;20049;-78
2022/01/11 01:18:16;;;;;;;28.43;15.60;;;2.10;99.90;;;;;;5034748;28;20032;-78
2022/01/11 01:20:44;;;;;;;27.40;15.23;;;2.10;99.90;;;;;;5034882;28;20022;-78
2022/01/11 01:23:09;;;;;;;32.97;16.50;;;2.20;99.90;;;;;;5034351;28;20037;-78
2022/01/11 01:25:35;;;;;;;24.33;15.70;;;2.00;99.90;;;;;;5034125;28;20335;-79
2022/01/11 01:28:01;;;;;;;23.50;14.00;;;2.00;99.90;;;;;;5034360;28;20018;-76
2022/01/11 01:30:28;;;;;;;27.63;16.60;;;2.00;99.90;;;;;;5033021;28;20052;-77
2022/01/11 01:32:53;;;;;;;23.03;14.70;;;2.00;99.90;;;;;;5034406;28;20382;-76
2022/01/11 01:35:22;;;;;;;26.27;15.40;;;2.00;99.90;;;;;;5034483;28;20382;-77
2022/01/11 01:37:48;;;;;;;28.60;16.40;;;2.00;99.90;;;;;;5034518;28;20394;-77
2022/01/11 01:40:17;;;;;;;25.80;14.83;;;2.00;99.90;;;;;;5032526;28;20055;-76
2022/01/11 01:42:44;;;;;;;28.00;15.37;;;2.00;99.90;;;;;;5033879;28;20079;-77
2022/01/11 01:45:11;;;;;;;29.07;16.47;;;2.10;99.90;;;;;;5034094;28;20033;-77
2022/01/11 01:47:36;;;;;;;24.67;14.00;;;2.10;99.90;;;;;;5034081;28;20029;-77
2022/01/11 01:50:05;;;;;;;28.80;16.03;;;2.10;99.90;;;;;;5034339;28;20352;-77
2022/01/11 01:52:31;;;;;;;27.43;15.90;;;2.00;99.90;;;;;;5033955;28;20025;-77
2022/01/11 01:54:57;;;;;;;22.27;13.87;;;1.90;99.90;;;;;;5033966;28;20095;-77
2022/01/11 01:57:24;;;;;;;25.10;15.37;;;1.90;99.90;;;;;;5033901;28;20060;-77
2022/01/11 01:59:52;;;;;;;25.00;15.33;;;1.90;99.90;;;;;;5033839;28;20056;-77
2022/01/11 02:02:18;;;;;;;27.80;16.60;;;1.80;99.90;;;;;;5032953;28;20026;-77
2022/01/11 02:04:45;;;;;;;25.80;14.97;;;1.90;99.90;;;;;;5033731;28;20103;-77
2022/01/11 02:07:10;;;;;;;25.37;15.43;;;1.90;99.90;;;;;;5033594;28;20026;-77
2022/01/11 02:09:36;;;;;;;29.17;16.53;;;1.90;99.90;;;;;;5033381;28;20033;-77
2022/01/11 02:12:02;;;;;;;27.53;15.83;;;1.90;99.90;;;;;;5032294;28;20029;-78
2022/01/11 02:14:27;;;;;;;26.30;15.37;;;2.00;99.90;;;;;;5033790;28;20029;-78
2022/01/11 02:16:56;;;;;;;27.57;14.83;;;1.90;99.90;;;;;;5033344;28;20121;-78
2022/01/11 02:19:22;;;;;;;23.97;14.27;;;1.80;99.90;;;;;;5033233;28;20021;-77
2022/01/11 02:21:48;;;;;;;29.97;16.40;;;1.80;99.90;;;;;;5033185;28;20029;-78
2022/01/11 02:24:13;;;;;;;24.97;15.13;;;1.90;99.90;;;;;;5033142;28;20069;-78
2022/01/11 02:26:39;;;;;;;26.33;15.63;;;1.90;99.90;;;;;;5033698;28;20056;-78
2022/01/11 02:29:05;;;;;;;29.97;15.73;;;1.90;99.90;;;;;;5033448;28;20471;-78
2022/01/11 02:31:34;;;;;;;25.77;14.20;;;1.90;99.90;;;;;;5031734;28;20029;-78
2022/01/11 02:34:00;;;;;;;30.63;15.77;;;2.00;99.90;;;;;;5033388;28;20037;-79
2022/01/11 02:36:30;;;;;;;29.13;15.97;;;1.90;99.90;;;;;;5033309;28;20047;-78
2022/01/11 02:38:57;;;;;;;26.37;14.70;;;1.80;99.90;;;;;;5031667;28;20057;-78
2022/01/11 02:41:26;;;;;;;27.63;16.33;;;1.80;99.90;;;;;;5033242;28;20025;-77
2022/01/11 02:43:51;;;;;;;23.77;14.67;;;1.80;99.90;;;;;;5032869;28;20446;-78
2022/01/11 02:46:22;;;;;;;27.93;16.47;;;1.80;99.90;;;;;;5033189;28;20045;-78
2022/01/11 02:48:49;;;;;;;31.73;15.67;;;1.70;99.90;;;;;;5032896;28;20386;-78
2022/01/11 02:51:17;;;;;;;30.30;17.43;;;1.70;99.90;;;;;;5033486;28;20044;-78
2022/01/11 02:53:45;;;;;;;28.30;16.40;;;1.80;99.90;;;;;;5033143;28;20024;-78
2022/01/11 02:56:12;;;;;;;26.90;16.03;;;1.70;99.90;;;;;;5032966;28;20030;-78
2022/01/11 02:58:38;;;;;;;27.37;16.20;;;1.70;99.90;;;;;;5030621;28;20056;-82
2022/01/11 03:01:05;;;;;;;29.47;15.87;;;1.60;99.90;;;;;;5029711;28;20397;-79
2022/01/11 03:03:31;;;;;;;25.17;15.13;;;1.70;99.90;;;;;;5030095;28;20095;-80
2022/01/11 03:06:00;;;;;;;26.27;15.80;;;1.70;99.90;;;;;;5029962;28;20030;-80
2022/01/11 03:08:29;;;;;;;31.43;16.33;;;1.60;99.90;;;;;;5030184;28;20025;-81
2022/01/11 03:10:55;;;;;;;25.23;15.67;;;1.60;99.90;;;;;;5030041;28;20455;-80
2022/01/11 03:13:21;;;;;;;27.23;16.40;;;1.60;99.90;;;;;;5028975;28;20060;-81
2022/01/11 03:15:48;;;;;;;28.27;16.60;;;1.70;99.90;;;;;;5027397;28;20030;-80
2022/01/11 03:18:14;;;;;;;28.67;16.43;;;1.60;99.90;;;;;;5019266;28;20034;-80
2022/01/11 03:20:42;;;;;;;27.97;16.47;;;1.60;99.90;;;;;;5029958;28;20038;-81
2022/01/11 03:23:08;;;;;;;26.93;17.40;;;1.50;99.90;;;;;;5028416;28;20050;-81
2022/01/11 03:25:35;;;;;;;28.57;16.13;;;1.50;99.90;;;;;;5033538;28;20129;-81
2022/01/11 03:28:01;;;;;;;28.83;16.63;;;1.50;99.90;;;;;;5033414;28;20108;-81
2022/01/11 03:30:27;;;;;;;27.50;17.03;;;1.50;99.90;;;;;;5033845;28;20029;-81
2022/01/11 03:32:53;;;;;;;33.07;17.20;;;1.40;99.90;;;;;;5033329;28;20494;-81
2022/01/11 03:35:18;;;;;;;32.50;18.67;;;1.40;99.90;;;;;;5033702;28;20037;-82
2022/01/11 03:37:46;;;;;;;32.67;18.83;;;1.40;99.90;;;;;;5033397;28;20033;-81
2022/01/11 03:40:16;;;;;;;32.50;18.60;;;1.40;99.90;;;;;;5033515;28;20030;-81
2022/01/11 03:42:43;;;;;;;32.63;17.90;;;1.30;99.90;;;;;;5033425;28;20330;-82
2022/01/11 03:45:10;;;;;;;36.30;19.43;;;1.30;99.90;;;;;;5031834;28;20022;-81
2022/01/11 03:47:35;;;;;;;32.27;17.87;;;1.30;99.90;;;;;;5033148;28;20508;-81
2022/01/11 03:50:03;;;;;;;30.10;17.43;;;1.30;99.90;;;;;;5033443;28;20061;-81
2022/01/11 03:52:29;;;;;;;30.87;18.57;;;1.30;99.90;;;;;;5032979;28;20500;-81
2022/01/11 03:57:20;;;;;;;33.60;19.07;;;1.30;99.90;;;;;;5033317;28;20078;-81
2022/01/11 03:59:46;;;;;;;32.00;18.40;;;1.30;99.90;;;;;;5032900;28;20048;-81
2022/01/11 04:02:12;;;;;;;28.67;17.10;;;1.30;99.90;;;;;;5032975;28;20029;-82
2022/01/11 04:04:38;;;;;;;27.37;16.60;;;1.30;99.90;;;;;;5032908;28;20078;-82
2022/01/11 04:07:04;;;;;;;30.33;18.07;;;1.30;99.90;;;;;;5032619;28;20021;-82
2022/01/11 04:09:29;;;;;;;32.13;16.93;;;1.30;99.90;;;;;;5031726;28;20025;-82
2022/01/11 04:11:55;;;;;;;26.53;16.00;;;1.30;99.90;;;;;;5032740;28;20037;-82
2022/01/11 04:14:22;;;;;;;29.83;15.93;;;1.40;99.90;;;;;;5033104;28;20033;-82
2022/01/11 04:16:48;;;;;;;27.77;16.07;;;1.40;99.90;;;;;;5029236;28;20034;-81
2022/01/11 04:19:13;;;;;;;28.77;17.37;;;1.40;99.90;;;;;;5019554;28;20042;-82
2022/01/11 04:21:39;;;;;;;27.53;16.57;;;1.50;99.90;;;;;;5035896;28;20034;-81
2022/01/11 04:24:05;;;;;;;26.33;16.23;;;1.50;99.90;;;;;;5032618;28;20103;-81
2022/01/11 04:26:30;;;;;;;29.00;16.53;;;1.50;99.90;;;;;;5032746;28;20032;-81
2022/01/11 04:28:56;;;;;;;25.77;15.00;;;1.60;99.90;;;;;;5032495;28;20029;-81
2022/01/11 04:31:21;;;;;;;27.73;17.17;;;1.70;99.90;;;;;;5031869;28;20045;-82
2022/01/11 04:33:47;;;;;;;30.50;19.33;;;1.80;99.90;;;;;;5032587;28;20104;-82
2022/01/11 04:36:13;;;;;;;27.43;17.03;;;1.70;99.90;;;;;;5032345;28;20029;-82
2022/01/11 04:38:39;;;;;;;25.80;15.57;;;1.80;99.90;;;;;;5032272;28;20035;-82
2022/01/11 04:41:05;;;;;;;27.83;16.63;;;1.70;99.90;;;;;;5032296;28;20025;-82
2022/01/11 04:43:30;;;;;;;26.07;15.63;;;1.70;99.90;;;;;;5032208;28;20029;-82
2022/01/11 04:45:57;;;;;;;27.50;16.07;;;1.70;99.90;;;;;;5032108;28;20026;-82
2022/01/11 04:48:23;;;;;;;26.03;15.73;;;1.60;99.90;;;;;;5030808;28;20041;-82
2022/01/11 04:50:49;;;;;;;29.87;14.77;;;1.60;99.90;;;;;;5032179;28;20140;-82
2022/01/11 04:53:15;;;;;;;28.53;15.53;;;1.60;99.90;;;;;;5032243;28;20104;-81
2022/01/11 04:55:40;;;;;;;27.13;15.30;;;1.60;99.90;;;;;;5030794;28;20044;-82
2022/01/11 04:58:06;;;;;;;30.93;15.90;;;1.70;99.90;;;;;;5031788;28;20083;-81
2022/01/11 05:00:32;;;;;;;28.03;15.97;;;1.60;99.90;;;;;;5031987;28;20028;-82
2022/01/11 05:02:59;;;;;;;31.33;15.80;;;1.70;99.90;;;;;;5032087;28;20022;-82
2022/01/11 05:05:27;;;;;;;25.70;14.33;;;1.70;99.90;;;;;;5032038;28;20105;-82
2022/01/11 05:07:53;;;;;;;29.27;15.70;;;1.60;99.90;;;;;;5032108;28;20478;-82
2022/01/11 05:10:19;;;;;;;26.53;16.03;;;1.50;99.90;;;;;;5031701;28;20036;-82
2022/01/11 05:12:44;;;;;;;27.57;16.27;;;1.50;99.90;;;;;;5031274;28;20033;-82
2022/01/11 05:15:12;;;;;;;24.33;15.00;;;1.50;99.90;;;;;;5028015;28;20030;-80
2022/01/11 05:17:38;;;;;;;26.73;16.60;;;1.40;99.90;;;;;;5013841;28;20022;-81
2022/01/11 05:20:06;;;;;;;26.73;16.63;;;1.30;99.90;;;;;;5016082;28;20061;-74
2022/01/11 05:22:32;;;;;;;29.20;18.30;;;1.30;99.90;;;;;;5014666;28;20105;-74
2022/01/11 05:24:57;;;;;;;34.30;19.77;;;1.20;99.90;;;;;;5029849;28;20133;-74
2022/01/11 05:27:23;;;;;;;33.67;20.77;;;1.20;99.90;;;;;;5014930;28;20053;-73
2022/01/11 05:29:48;;;;;;;38.50;22.27;;;1.10;99.90;;;;;;5030851;28;20438;-73
2022/01/11 05:32:14;;;;;;;35.17;20.03;;;1.10;99.90;;;;;;5034300;28;20078;-73
2022/01/11 05:34:40;;;;;;;37.13;18.37;;;1.10;99.90;;;;;;5032960;28;20040;-73
2022/01/11 05:37:05;;;;;;;32.43;18.13;;;1.10;99.90;;;;;;5034198;28;20037;-73
2022/01/11 05:39:31;;;;;;;32.27;19.30;;;1.10;99.90;;;;;;5034121;28;20017;-74
2022/01/11 05:41:56;;;;;;;36.40;20.73;;;1.10;99.90;;;;;;5034898;28;20021;-74
2022/01/11 05:44:22;;;;;;;32.73;18.03;;;1.00;99.90;;;;;;5032798;28;20108;-74
2022/01/11 05:46:48;;;;;;;37.83;19.83;;;1.00;99.90;;;;;;5033396;28;20053;-74
2022/01/11 05:49:14;;;;;;;32.33;18.87;;;1.00;99.90;;;;;;5034096;28;20037;-74
2022/01/11 05:51:39;;;;;;;33.93;18.33;;;1.00;99.90;;;;;;5034160;28;20034;-74
2022/01/11 05:54:05;;;;;;;33.57;18.27;;;1.00;99.90;;;;;;5033860;28;20026;-74
2022/01/11 05:56:31;;;;;;;38.90;19.57;;;1.00;99.90;;;;;;5033325;28;20056;-74
2022/01/11 05:58:56;;;;;;;35.17;20.27;;;0.90;99.90;;;;;;5026508;28;20041;-74
2022/01/11 06:01:23;;;;;;;36.37;19.97;;;0.90;99.90;;;;;;5013877;28;20026;-74
2022/01/11 06:03:49;;;;;;;32.33;19.43;;;0.90;99.90;;;;;;5027280;28;20025;-74
2022/01/11 06:06:14;;;;;;;35.47;21.00;;;0.90;99.90;;;;;;5033548;28;20022;-74
2022/01/11 06:08:40;;;;;;;37.87;20.33;;;0.90;99.90;;;;;;5033459;28;20025;-74
2022/01/11 06:11:07;;;;;;;32.90;19.30;;;0.90;99.90;;;;;;5033544;28;20071;-74
2022/01/11 06:13:33;;;;;;;50.23;21.30;;;0.90;99.90;;;;;;5032082;28;20029;-73
2022/01/11 06:15:58;;;;;;;38.10;20.20;;;0.90;99.90;;;;;;5033486;28;20026;-74
2022/01/11 06:18:24;;;;;;;39.97;21.37;;;0.90;99.90;;;;;;5033579;28;20028;-74
2022/01/11 06:20:50;;;;;;;39.13;20.93;;;0.90;99.90;;;;;;5033398;28;20029;-74
2022/01/11 06:23:15;;;;;;;35.23;19.67;;;0.90;99.90;;;;;;5033369;28;20033;-73
2022/01/11 06:25:41;;;;;;;38.13;20.63;;;0.90;99.90;;;;;;5033313;28;20492;-74
2022/01/11 06:28:06;;;;;;;36.20;20.90;;;0.90;99.90;;;;;;5033243;28;20040;-73
2022/01/11 06:30:32;;;;;;;35.60;21.80;;;0.90;99.90;;;;;;5031765;28;20116;-74
2022/01/11 06:32:57;;;;;;;38.23;20.13;;;0.90;99.90;;;;;;5033319;28;20026;-74
2022/01/11 06:35:24;;;;;;;36.43;21.50;;;0.90;99.90;;;;;;5031838;28;20025;-74
2022/01/11 06:37:51;;;;;;;34.83;20.53;;;0.90;99.90;;;;;;5031519;28;20030;-73
2022/01/11 06:40:19;;;;;;;36.33;20.37;;;1.00;99.90;;;;;;5032819;28;20025;-73
2022/01/11 06:42:46;;;;;;;36.07;20.07;;;1.00;99.90;;;;;;5033229;28;20029;-73
2022/01/11 06:45:15;;;;;;;36.03;21.10;;;1.00;99.90;;;;;;5032970;28;20036;-73
2022/01/11 06:47:41;;;;;;;34.47;21.00;;;1.00;99.90;;;;;;5032224;28;20040;-66
2022/01/11 06:50:08;;;;;;;33.97;20.60;;;1.00;99.90;;;;;;5031392;28;20025;-74
2022/01/11 06:52:33;;;;;;;35.20;19.73;;;1.10;99.90;;;;;;5033185;28;20029;-74
2022/01/11 06:54:59;;;;;;;37.20;19.73;;;1.10;99.90;;;;;;5033004;28;20032;-74
2022/01/11 06:57:27;;;;;;;33.87;19.03;;;1.10;99.90;;;;;;5033445;28;20032;-73
2022/01/11 06:59:52;;;;;;;36.23;19.60;;;1.10;99.90;;;;;;5037254;28;20021;-73
2022/01/11 07:02:18;;;;;;;35.43;19.50;;;1.20;99.90;;;;;;5037712;28;20104;-74
2022/01/11 07:04:44;;;;;;;31.13;18.20;;;1.20;99.90;;;;;;5037084;28;20033;-74
2022/01/11 07:07:09;;;;;;;32.23;19.13;;;1.20;99.90;;;;;;5036973;28;20031;-73
2022/01/11 07:09:36;;;;;;;31.87;18.47;;;1.30;99.90;;;;;;5036892;28;20100;-74
2022/01/11 07:12:02;;;;;;;30.17;17.90;;;1.30;99.90;;;;;;5035578;28;20029;-74
2022/01/11 07:14:27;;;;;;;47.87;25.00;;;1.40;99.90;;;;;;5036941;28;20440;-74
2022/01/11 07:16:53;;;;;;;78.10;37.57;;;1.60;99.90;;;;;;5036649;28;20112;-74
2022/01/11 07:19:19;;;;;;;158.37;74.50;;;1.80;99.90;;;;;;5036709;28;20030;-74
2022/01/11 07:21:46;;;;;;;37.83;20.83;;;2.00;99.90;;;;;;5035537;28;20028;-73
2022/01/11 07:24:13;;;;;;;87.87;41.90;;;2.10;99.90;;;;;;5036607;28;20053;-73
2022/01/11 07:26:39;;;;;;;38.00;21.37;;;2.10;99.90;;;;;;5036560;28;20017;-73
2022/01/11 07:29:07;;;;;;;114.63;52.03;;;2.00;99.90;;;;;;5036751;28;20025;-74
2022/01/11 07:31:34;;;;;;;64.70;32.27;;;1.80;99.90;;;;;;5036954;28;20485;-73
2022/01/11 07:33:59;;;;;;;25.53;15.80;;;1.80;99.90;;;;;;5019245;28;20160;-74
2022/01/11 07:36:25;;;;;;;305.10;141.93;;;1.90;99.90;;;;;;5028382;28;20068;-74
2022/01/11 07:38:51;;;;;;;33.93;19.23;;;1.90;99.90;;;;;;5024718;28;20500;-74
2022/01/11 07:41:17;;;;;;;37.20;22.47;;;2.00;99.90;;;;;;5036375;28;20036;-74
2022/01/11 07:43:43;;;;;;;65.30;33.27;;;2.00;99.90;;;;;;5036346;28;20025;-74
2022/01/11 07:46:08;;;;;;;31.67;16.47;;;2.00;99.90;;;;;;5031920;28;20463;-75
2022/01/11 07:48:34;;;;;;;29.40;17.23;;;2.10;99.90;;;;;;5025999;28;20026;-75
2022/01/11 07:50:59;;;;;;;25.30;15.33;;;2.10;99.90;;;;;;5029376;28;20324;-74
2022/01/11 07:53:25;;;;;;;29.30;15.73;;;2.20;99.90;;;;;;5036467;28;20021;-74
2022/01/11 07:55:51;;;;;;;26.13;15.80;;;2.30;99.90;;;;;;5036373;28;20458;-74
2022/01/11 07:58:16;;;;;;;23.40;14.83;;;2.30;99.90;;;;;;5024446;28;20029;-74
2022/01/11 08:00:42;;;;;;;24.27;13.83;;;2.30;99.90;;;;;;5016386;28;20033;-74
2022/01/11 08:03:08;;;;;;;24.80;15.73;;;2.20;99.90;;;;;;5034436;28;20020;-79
2022/01/11 08:05:34;;;;;;;27.53;16.03;;;2.20;99.90;;;;;;5024919;28;20080;-79
2022/01/11 08:08:00;;;;;;;24.07;15.43;;;2.20;99.90;;;;;;5021353;28;20099;-80
2022/01/11 08:10:25;;;;;;;27.67;16.53;;;2.30;99.90;;;;;;5026834;28;20048;-80
2022/01/11 08:12:51;;;;;;;24.70;15.90;;;2.30;99.90;;;;;;5026259;28;20025;-80
2022/01/11 08:15:17;;;;;;;26.83;15.70;;;2.30;99.90;;;;;;5024229;28;20044;-80
2022/01/11 08:17:42;;;;;;;24.97;14.97;;;2.30;99.90;;;;;;5022448;28;20065;-80
2022/01/11 08:20:08;;;;;;;25.43;14.97;;;2.30;99.90;;;;;;5027770;28;20037;-80
2022/01/11 08:22:34;;;;;;;23.43;14.57;;;2.40;99.90;;;;;;5027223;28;20037;-79
2022/01/11 08:25:00;;;;;;;23.10;15.27;;;2.50;99.90;;;;;;5028454;28;20069;-79
2022/01/11 08:27:25;;;;;;;23.70;14.70;;;2.60;99.90;;;;;;5023342;28;20058;-79
2022/01/11 08:29:52;;;;;;;21.67;14.60;;;2.70;99.90;;;;;;5028297;28;20092;-79
2022/01/11 08:32:17;;;;;;;23.53;13.83;;;2.70;99.90;;;;;;5025407;28;20121;-79
2022/01/11 08:34:44;;;;;;;21.30;14.47;;;2.70;99.90;;;;;;5025951;28;20120;-79
2022/01/11 08:37:10;;;;;;;22.63;14.93;;;2.80;99.90;;;;;;5026487;28;20567;-79
2022/01/11 08:39:36;;;;;;;23.97;16.03;;;2.80;99.90;;;;;;5033973;28;20026;-80
2022/01/11 08:42:03;;;;;;;23.50;15.87;;;2.70;99.90;;;;;;5035483;28;20105;-80
2022/01/11 08:44:28;;;;;;;33.40;19.80;;;2.80;99.90;;;;;;5035338;28;20048;-80
2022/01/11 08:46:54;;;;;;;29.67;18.50;;;2.60;99.90;;;;;;5035061;28;20466;-80
2022/01/11 08:49:21;;;;;;;27.40;15.27;;;2.60;99.90;;;;;;5035335;28;20030;-80
2022/01/11 08:51:47;;;;;;;25.47;16.10;;;2.60;99.90;;;;;;5035219;28;20104;-80
2022/01/11 08:54:14;;;;;;;24.23;15.53;;;2.60;99.90;;;;;;5035076;28;20117;-79
2022/01/11 08:56:40;;;;;;;22.10;13.97;;;2.80;99.90;;;;;;5035006;28;20032;-80
2022/01/11 08:59:06;;;;;;;20.83;12.70;;;2.80;99.90;;;;;;5034976;28;20113;-80
2022/01/11 09:01:34;;;;;;;21.73;13.33;;;3.00;99.90;;;;;;5033689;28;20018;-80
2022/01/11 09:04:00;;;;;;;21.47;13.77;;;2.80;99.90;;;;;;5035168;28;20017;-79
2022/01/11 09:06:26;;;;;;;21.87;14.03;;;2.70;99.90;;;;;;5034764;28;20018;-80
2022/01/11 09:08:52;;;;;;;23.60;15.40;;;2.60;99.90;;;;;;5034930;28;20030;-79
2022/01/11 09:11:17;;;;;;;23.40;15.23;;;2.40;99.90;;;;;;5035278;28;20065;-80
2022/01/11 09:13:43;;;;;;;25.73;16.57;;;2.40;99.90;;;;;;5034805;28;20090;-80
2022/01/11 09:16:11;;;;;;;29.30;16.10;;;2.60;99.90;;;;;;5024889;28;20021;-79
2022/01/11 09:18:37;;;;;;;28.80;17.83;;;2.80;99.90;;;;;;5022078;28;20537;-79
2022/01/11 09:21:03;;;;;;;33.47;17.73;;;2.70;99.90;;;;;;5021513;28;20036;-79
2022/01/11 09:23:29;;;;;;;29.80;17.90;;;2.80;99.90;;;;;;5024877;28;20820;-79
2022/01/11 09:25:55;;;;;;;29.90;15.97;;;2.90;99.90;;;;;;5027078;28;20814;-82
2022/01/11 09:28:22;;;;;;;31.90;17.30;;;3.00;99.90;;;;;;5019246;28;20099;-82
2022/01/11 09:30:49;;;;;;;29.07;17.30;;;3.00;99.90;;;;;;5026214;28;20405;-82
2022/01/11 09:33:15;;;;;;;27.97;16.97;;;2.90;99.90;;;;;;5026673;28;20037;-82
2022/01/11 09:35:41;;;;;;;27.57;17.60;;;2.80;99.90;;;;;;5023130;28;20082;-82
2022/01/11 09:38:07;;;;;;;39.20;20.37;;;2.90;99.90;;;;;;5022415;28;20033;-81
2022/01/11 09:40:33;;;;;;;29.70;17.93;;;2.90;99.90;;;;;;5026620;28;20040;-82
2022/01/11 09:42:58;;;;;;;26.40;16.33;;;2.80;99.90;;;;;;5028204;28;20048;-74
2022/01/11 09:45:24;;;;;;;28.43;17.50;;;2.90;99.90;;;;;;5034195;28;20462;-74
2022/01/11 09:47:50;;;;;;;22.30;15.63;;;2.90;99.90;;;;;;5030426;28;20053;-74
2022/01/11 09:50:17;;;;;;;28.07;17.17;;;3.00;99.90;;;;;;5029074;28;20057;-74
2022/01/11 09:52:42;;;;;;;43.83;21.23;;;3.00;99.90;;;;;;5017964;28;20022;-74
2022/01/11 09:55:12;;;;;;;39.47;19.17;;;3.00;99.90;;;;;;5024114;28;20326;-74
2022/01/11 09:57:40;;;;;;;43.67;21.07;;;2.90;99.90;;;;;;5022316;28;20398;-74
2022/01/11 10:00:08;;;;;;;46.90;20.40;;;2.80;99.90;;;;;;5015410;28;20474;-74
2022/01/11 10:02:34;;;;;;;33.80;18.23;;;2.90;99.90;;;;;;5033504;28;20159;-74
2022/01/11 10:05:05;;;;;;;39.90;19.30;;;3.00;99.90;;;;;;5032303;28;20083;-74
2022/01/11 10:07:34;;;;;;;32.17;17.80;;;2.80;99.90;;;;;;5029229;28;20462;-74
2022/01/11 10:10:00;;;;;;;33.43;18.73;;;2.80;99.90;;;;;;5015165;28;20025;-74
2022/01/11 10:12:29;;;;;;;30.33;17.17;;;2.80;99.90;;;;;;5026267;28;20022;-74
2022/01/11 10:14:58;;;;;;;31.27;17.50;;;2.80;99.90;;;;;;5033502;28;20026;-74
2022/01/11 10:17:27;;;;;;;28.23;16.73;;;2.90;99.90;;;;;;5033618;28;20033;-73
2022/01/11 10:20:05;;;;;;;29.93;17.07;;;2.90;99.90;;;;;;5033276;28;20040;-74
2022/01/11 10:22:30;;;;;;;26.67;15.77;;;3.00;99.90;;;;;;5033371;28;20030;-74
2022/01/11 10:24:57;;;;;;;20.03;12.37;;;3.20;99.90;;;;;;5031913;28;20040;-74
2022/01/11 10:27:35;;;;;;;23.50;13.77;;;3.30;99.90;;;;;;5033304;28;20021;-74
2022/01/11 10:30:17;;;;;;;21.93;13.93;;;3.30;99.90;;;;;;5033793;28;20072;-74
2022/01/11 10:32:45;;;;;;;18.40;12.27;;;3.40;99.90;;;;;;5028768;28;20133;-74
2022/01/11 10:35:24;;;;;;;25.30;16.00;;;3.40;99.90;;;;;;5031598;28;20128;-84
2022/01/11 10:37:55;;;;;;;19.87;12.83;;;3.60;99.90;;;;;;5026262;28;20332;-82
2022/01/11 10:40:27;;;;;;;22.67;13.87;;;3.60;99.90;;;;;;5026769;28;20099;-82
2022/01/11 10:42:59;;;;;;;19.97;12.53;;;3.90;99.90;;;;;;5027289;28;20037;-83
2022/01/11 10:45:39;;;;;;;18.87;12.47;;;4.00;99.90;;;;;;5027408;28;20025;-83
2022/01/11 10:48:07;;;;;;;16.93;10.87;;;3.90;99.90;;;;;;5028114;28;20041;-83
2022/01/11 10:50:45;;;;;;;19.13;12.73;;;3.90;99.90;;;;;;5027148;28;20037;-83
2022/01/11 10:53:20;;;;;;;18.90;13.50;;;3.70;99.90;;;;;;5026332;28;20041;-83
2022/01/11 10:55:54;;;;;;;24.35;13.27;;;3.40;99.90;;;;;;5026076;28;20040;-83
2022/01/11 10:58:22;;;;;;;25.37;13.97;;;3.30;99.90;;;;;;5026939;28;20056;-84
2022/01/11 11:00:53;;;;;;;21.17;13.07;;;3.20;99.90;;;;;;5025394;28;20058;-84
2022/01/11 11:03:26;;;;;;;20.90;13.00;;;3.40;99.90;;;;;;5025582;28;20026;-84
2022/01/11 11:06:08;;;;;;;22.47;13.27;;;3.70;99.90;;;;;;5027091;28;20045;-84
2022/01/11 11:08:40;;;;;;;22.03;13.30;;;4.00;99.90;;;;;;5027170;28;20075;-83
2022/01/11 11:11:15;;;;;;;19.30;13.17;;;4.00;99.90;;;;;;5027136;28;20433;-84
2022/01/11 11:13:43;;;;;;;17.77;11.63;;;4.10;99.90;;;;;;5025328;28;20795;-83
2022/01/11 11:16:22;;;;;;;20.57;13.10;;;4.10;99.90;;;;;;5023308;28;20044;-83
2022/01/11 11:18:59;;;;;;;18.20;12.93;;;4.10;99.90;;;;;;5027335;28;20022;-83
2022/01/11 11:21:31;;;;;;;21.03;11.77;;;4.10;99.90;;;;;;5029479;28;20680;-84
2022/01/11 11:24:02;;;;;;;17.60;11.53;;;4.10;99.90;;;;;;5028651;28;20045;-83
2022/01/11 11:26:44;;;;;;;14.70;9.80;;;4.00;99.90;;;;;;5028065;28;20477;-84
2022/01/11 11:29:11;;;;;;;15.27;9.17;;;4.00;99.90;;;;;;5030015;28;20082;-83
2022/01/11 11:31:37;;;;;;;13.00;9.00;;;4.10;99.90;;;;;;5029665;28;20040;-83
2022/01/11 11:34:07;;;;;;;12.53;8.00;;;4.00;99.90;;;;;;5029651;28;20067;-83
2022/01/11 11:36:34;;;;;;;12.10;8.10;;;4.00;99.90;;;;;;5029678;28;20104;-83
2022/01/11 11:39:18;;;;;;;11.00;7.53;;;3.90;99.90;;;;;;5029868;28;20034;-83
2022/01/11 11:41:49;;;;;;;10.13;7.47;;;4.00;99.90;;;;;;5029581;28;20034;-83
2022/01/11 11:44:18;;;;;;;11.43;7.10;;;4.10;99.90;;;;;;5029384;28;20022;-83
2022/01/11 11:46:53;;;;;;;11.53;7.43;;;4.10;99.90;;;;;;5032901;28;20045;-83
2022/01/11 11:49:51;;;;;;;10.03;6.47;;;4.10;99.90;;;;;;5031678;28;20379;-84
2022/01/11 11:52:30;;;;;;;9.80;6.40;;;4.10;99.90;;;;;;5032908;28;20033;-84
2022/01/11 11:54:58;;;;;;;11.63;7.03;;;4.00;99.90;;;;;;5032870;28;20025;-84
2022/01/11 11:57:31;;;;;;;8.90;6.07;;;4.00;99.90;;;;;;5032534;28;20386;-83
2022/01/11 11:59:59;;;;;;;9.30;5.80;;;4.10;99.90;;;;;;5032850;28;20489;-83
2022/01/11 12:02:35;;;;;;;10.00;6.30;;;4.00;99.90;;;;;;5013674;28;20026;-84
2022/01/11 12:05:03;;;;;;;9.07;6.97;;;3.90;99.90;;;;;;5015521;28;20411;-84
2022/01/11 12:07:51;;;;;;;9.57;6.43;;;3.90;99.90;;;;;;5027536;28;20033;-84
2022/01/11 12:10:29;;;;;;;10.67;7.37;;;4.10;99.90;;;;;;5027628;28;20095;-84
2022/01/11 12:12:55;;;;;;;14.47;8.53;;;4.30;99.90;;;;;;5029638;28;20029;-83
2022/01/11 12:15:21;;;;;;;10.83;7.47;;;4.30;99.90;;;;;;5027999;28;20029;-83
2022/01/11 12:17:59;;;;;;;13.57;8.47;;;4.30;99.90;;;;;;5023933;28;20515;-75
2022/01/11 12:20:44;;;;;;;10.53;7.10;;;4.20;99.90;;;;;;5035306;28;20025;-81
2022/01/11 12:23:20;;;;;;;10.48;7.32;;;4.30;99.90;;;;;;5035101;28;20065;-81
2022/01/11 12:25:51;;;;;;;12.73;6.60;;;4.40;99.90;;;;;;5035101;28;20540;-81
2022/01/11 12:28:20;;;;;;;9.70;6.37;;;4.50;99.90;;;;;;5018264;28;20447;-81
2022/01/11 12:30:45;;;;;;;11.27;7.63;;;4.50;99.90;;;;;;5034356;28;20025;-82
2022/01/11 12:33:22;;;;;;;9.80;7.03;;;4.40;99.90;;;;;;5034849;28;20032;-82
2022/01/11 12:35:57;;;;;;;13.03;7.87;;;4.30;99.90;;;;;;5035334;28;20026;-81
2022/01/11 12:38:25;;;;;;;10.52;6.75;;;4.20;99.90;;;;;;5035093;28;20026;-81
2022/01/11 12:40:51;;;;;;;10.23;7.07;;;4.30;99.90;;;;;;5034912;28;20041;-81
2022/01/11 12:43:38;;;;;;;8.97;6.77;;;4.20;99.90;;;;;;5034892;28;20025;-82
2022/01/11 12:46:12;;;;;;;9.87;6.87;;;4.20;99.90;;;;;;5034627;28;20017;-82